Time;durP1;ratioP1;P1;durP2;ratioP2;P2;SDS_P1;SDS_P2;PMS_P1;PMS_P2;Temp;Humidity;BMP_temperature;BMP_pressure;BME280_temperature;BME280_humidity;BME280_pressure;Samples;Min_cycle;Max_cycle;Signal;HPM_P1;HPM_P2
2023/02/07 00:00:43;;;;;;;25.60;16.23;;;-1.60;99.90;;;;;;5096159;28;20446;-82
2023/02/07 00:03:09;;;;;;;27.00;14.93;;;-1.70;99.90;;;;;;5114391;28;20537;-82
2023/02/07 00:05:35;;;;;;;29.53;16.50;;;-1.70;99.90;;;;;;5096290;28;20793;-82
2023/02/07 00:08:02;;;;;;;25.13;16.77;;;-1.70;99.90;;;;;;5096053;28;20403;-83
2023/02/07 00:10:28;;;;;;;30.50;15.75;;;-1.70;99.90;;;;;;5096059;28;20629;-82
2023/02/07 00:12:54;;;;;;;23.80;15.00;;;-1.80;99.90;;;;;;5114096;28;20243;-82
2023/02/07 00:15:20;;;;;;;29.73;17.50;;;-1.80;99.90;;;;;;5095790;28;20420;-82
2023/02/07 00:17:45;;;;;;;30.83;16.73;;;-1.80;99.90;;;;;;5095907;28;20494;-81
2023/02/07 00:20:11;;;;;;;29.93;15.60;;;-1.90;99.90;;;;;;5095851;28;20616;-82
2023/02/07 00:22:37;;;;;;;27.27;15.80;;;-1.90;99.90;;;;;;5095826;28;20211;-82
2023/02/07 00:25:03;;;;;;;33.70;15.00;;;-1.80;99.90;;;;;;5114178;28;20744;-82
2023/02/07 00:27:29;;;;;;;31.27;18.50;;;-1.80;99.90;;;;;;5095833;28;20432;-82
2023/02/07 00:29:54;;;;;;;30.57;16.60;;;-1.90;99.90;;;;;;5114195;28;20250;-82
2023/02/07 00:32:20;;;;;;;25.40;15.50;;;-1.90;99.90;;;;;;5114090;28;20200;-82
2023/02/07 00:34:47;;;;;;;49.13;17.57;;;-1.90;99.90;;;;;;5114057;28;20201;-81
2023/02/07 00:37:12;;;;;;;26.10;15.35;;;-1.90;99.90;;;;;;5095884;28;20442;-82
2023/02/07 00:39:38;;;;;;;27.50;15.30;;;-2.00;99.90;;;;;;5114041;28;20172;-83
2023/02/07 00:42:04;;;;;;;27.40;16.20;;;-1.90;99.90;;;;;;5095852;28;20834;-82
2023/02/07 00:44:31;;;;;;;33.43;17.00;;;-1.90;99.90;;;;;;5113984;28;20881;-82
2023/02/07 00:46:57;;;;;;;31.75;16.55;;;-2.00;99.90;;;;;;5117498;28;20465;-82
2023/02/07 00:49:23;;;;;;;28.75;16.60;;;-2.00;99.90;;;;;;5100069;28;20584;-83
2023/02/07 00:51:49;;;;;;;30.42;16.33;;;-2.00;99.90;;;;;;5118364;28;20176;-82
2023/02/07 00:54:15;;;;;;;24.20;16.00;;;-2.00;99.90;;;;;;5099738;28;20544;-83
2023/02/07 00:56:41;;;;;;;32.40;17.10;;;-2.00;99.90;;;;;;5099805;28;20391;-82
2023/02/07 00:59:07;;;;;;;30.73;16.80;;;-2.00;99.90;;;;;;5099625;28;20427;-82
2023/02/07 01:01:33;;;;;;;35.40;18.13;;;-2.10;99.90;;;;;;5099897;28;20688;-82
2023/02/07 01:03:59;;;;;;;32.80;17.00;;;-2.10;99.90;;;;;;5099419;28;20256;-82
2023/02/07 01:06:26;;;;;;;27.30;16.30;;;-2.10;99.90;;;;;;5118065;28;20171;-82
2023/02/07 01:08:58;;;;;;;25.25;15.45;;;-2.10;99.90;;;;;;5099564;28;20279;-83
2023/02/07 01:11:25;;;;;;;35.40;18.15;;;-2.10;99.90;;;;;;5099689;28;20199;-83
2023/02/07 01:13:50;;;;;;;32.38;17.17;;;-2.10;99.90;;;;;;5117914;28;20550;-83
2023/02/07 01:16:38;;;;;;;27.77;15.77;;;-2.10;99.90;;;;;;5099454;28;20267;-82
2023/02/07 01:19:09;;;;;;;28.48;17.05;;;-2.10;99.90;;;;;;5117495;28;20394;-83
2023/02/07 01:21:35;;;;;;;27.85;17.25;;;-2.10;99.90;;;;;;5098913;28;20327;-82
2023/02/07 01:24:00;;;;;;;27.80;14.97;;;-2.10;99.90;;;;;;5099130;28;20215;-82
2023/02/07 01:26:27;;;;;;;28.90;16.93;;;-2.10;99.90;;;;;;5099177;28;20203;-82
2023/02/07 01:28:54;;;;;;;29.00;16.30;;;-2.10;99.90;;;;;;5117209;28;20426;-82
2023/02/07 01:31:22;;;;;;;31.13;17.25;;;-2.10;99.90;;;;;;5099255;28;20701;-82
2023/02/07 01:33:55;;;;;;;31.92;18.25;;;-2.20;99.90;;;;;;5098913;28;20238;-83
2023/02/07 01:36:22;;;;;;;32.25;16.40;;;-2.20;99.90;;;;;;5117203;28;20660;-83
2023/02/07 01:38:48;;;;;;;27.40;15.40;;;-2.20;99.90;;;;;;5098891;28;20208;-83
2023/02/07 01:41:14;;;;;;;30.90;17.10;;;-2.30;99.90;;;;;;5117316;28;20630;-82
2023/02/07 01:43:54;;;;;;;30.30;17.70;;;-2.30;99.90;;;;;;5116963;28;20222;-83
2023/02/07 01:46:20;;;;;;;31.25;17.70;;;-2.30;99.90;;;;;;5117312;28;20176;-83
2023/02/07 01:48:46;;;;;;;31.33;18.57;;;-2.20;99.90;;;;;;5098627;28;20316;-83
2023/02/07 01:51:12;;;;;;;29.30;16.30;;;-2.30;99.90;;;;;;5117234;28;20823;-82
2023/02/07 01:53:39;;;;;;;31.77;18.60;;;-2.30;99.90;;;;;;5116833;28;20440;-83
2023/02/07 01:56:08;;;;;;;29.08;16.40;;;-2.20;99.90;;;;;;5117150;28;20961;-83
2023/02/07 01:58:35;;;;;;;31.20;16.08;;;-2.30;99.90;;;;;;5098975;28;20206;-83
2023/02/07 02:01:04;;;;;;;28.67;17.10;;;-2.30;99.90;;;;;;5099702;28;20214;-83
2023/02/07 02:03:32;;;;;;;34.95;18.35;;;-2.30;99.90;;;;;;5098557;28;20192;-83
2023/02/07 02:05:58;;;;;;;27.05;16.30;;;-2.40;99.90;;;;;;5116886;28;20261;-83
2023/02/07 02:08:24;;;;;;;34.95;17.75;;;-2.40;99.90;;;;;;5098587;28;20222;-83
2023/02/07 02:10:59;;;;;;;27.83;16.88;;;-2.40;99.90;;;;;;5118527;28;20176;-83
2023/02/07 02:13:30;;;;;;;33.15;17.25;;;-2.40;99.90;;;;;;5098396;28;20241;-83
2023/02/07 02:16:31;;;;;;;28.90;17.92;;;-2.40;99.90;;;;;;5098127;28;20187;-83
2023/02/07 02:19:16;;;;;;;35.58;18.05;;;-2.40;99.90;;;;;;5097505;28;20264;-83
2023/02/07 02:22:03;;;;;;;33.55;17.40;;;-2.40;99.90;;;;;;5116583;28;20214;-83
2023/02/07 02:24:47;;;;;;;33.97;17.05;;;-2.40;99.90;;;;;;5097959;28;20271;-83
2023/02/07 02:27:43;;;;;;;31.20;16.92;;;-2.40;99.90;;;;;;5098110;28;20215;-83
2023/02/07 02:30:42;;;;;;;27.48;16.90;;;-2.30;99.90;;;;;;5116236;28;20217;-83
2023/02/07 02:33:26;;;;;;;38.03;19.70;;;-2.40;99.90;;;;;;5097812;28;20548;-82
2023/02/07 02:36:07;;;;;;;28.73;18.35;;;-2.50;99.90;;;;;;5097754;28;20246;-82
2023/02/07 02:39:23;;;;;;;31.55;17.70;;;-2.50;99.90;;;;;;5097772;28;20229;-83
2023/02/07 02:41:59;;;;;;;34.92;20.27;;;-2.50;99.90;;;;;;5033344;28;20640;-83
2023/02/07 02:44:32;;;;;;;35.60;17.60;;;-2.60;99.90;;;;;;5033259;28;20550;-82
2023/02/07 02:47:00;;;;;;;37.42;19.48;;;-2.60;99.90;;;;;;5063534;28;20183;-83
2023/02/07 02:49:28;;;;;;;31.90;19.63;;;-2.60;99.90;;;;;;5097517;28;20220;-83
2023/02/07 02:51:56;;;;;;;30.25;17.27;;;-2.70;99.90;;;;;;5099094;28;20278;-83
2023/02/07 02:54:33;;;;;;;34.22;19.88;;;-2.70;99.90;;;;;;5098742;28;20207;-83
2023/02/07 02:57:15;;;;;;;41.95;22.20;;;-2.80;99.90;;;;;;5097596;28;20184;-83
2023/02/07 03:00:02;;;;;;;31.50;18.80;;;-2.80;99.90;;;;;;5115582;28;20660;-83
2023/02/07 03:02:50;;;;;;;36.28;19.80;;;-2.90;99.90;;;;;;5097172;28;20211;-82
2023/02/07 03:05:40;;;;;;;38.05;19.75;;;-2.90;99.90;;;;;;5097194;28;20179;-83
2023/02/07 03:08:41;;;;;;;36.35;19.27;;;-3.00;99.90;;;;;;5115208;28;20249;-82
2023/02/07 03:11:11;;;;;;;30.77;18.33;;;-3.00;99.90;;;;;;5072184;28;20721;-83
2023/02/07 03:14:00;;;;;;;30.33;17.80;;;-3.00;99.90;;;;;;5096792;28;20255;-82
2023/02/07 03:16:40;;;;;;;30.17;18.55;;;-3.00;99.90;;;;;;5097050;28;20176;-82
2023/02/07 03:19:13;;;;;;;35.22;20.00;;;-2.90;99.90;;;;;;5115171;28;20195;-83
2023/02/07 03:21:53;;;;;;;37.08;18.13;;;-2.90;99.90;;;;;;5115058;28;20200;-82
2023/02/07 03:24:25;;;;;;;31.15;18.45;;;-2.90;99.90;;;;;;5115352;28;20220;-82
2023/02/07 03:26:55;;;;;;;37.50;19.73;;;-2.90;99.90;;;;;;5115394;28;20182;-82
2023/02/07 03:29:23;;;;;;;36.67;20.48;;;-2.90;99.90;;;;;;5115025;28;20165;-82
2023/02/07 03:31:53;;;;;;;40.10;20.50;;;-2.90;99.90;;;;;;5115357;28;20171;-82
2023/02/07 03:34:28;;;;;;;30.10;17.92;;;-2.90;99.90;;;;;;5096943;28;20179;-82
2023/02/07 03:36:59;;;;;;;39.13;22.25;;;-2.90;99.90;;;;;;5115281;28;20503;-82
2023/02/07 03:39:26;;;;;;;33.78;19.65;;;-2.90;99.90;;;;;;5114749;28;20175;-82
2023/02/07 03:41:58;;;;;;;39.30;20.33;;;-2.90;99.90;;;;;;5096535;28;20276;-82
2023/02/07 03:44:27;;;;;;;34.80;20.67;;;-2.90;99.90;;;;;;5096494;28;20644;-83
2023/02/07 03:46:53;;;;;;;37.22;19.17;;;-3.00;99.90;;;;;;5115117;28;20172;-83
2023/02/07 03:49:19;;;;;;;36.05;18.40;;;-3.00;99.90;;;;;;5096348;28;20212;-82
2023/02/07 03:51:46;;;;;;;30.67;17.77;;;-3.00;99.90;;;;;;5096550;28;20211;-82
2023/02/07 03:54:12;;;;;;;35.13;19.10;;;-3.10;99.90;;;;;;5114836;28;20172;-82
2023/02/07 03:56:37;;;;;;;41.20;20.70;;;-3.10;99.90;;;;;;5096327;28;20178;-82
2023/02/07 03:59:04;;;;;;;34.87;19.20;;;-3.10;99.90;;;;;;5096185;28;20497;-81
2023/02/07 04:01:29;;;;;;;42.08;20.00;;;-3.10;99.90;;;;;;5114630;28;20556;-82
2023/02/07 04:03:55;;;;;;;40.90;20.67;;;-3.10;99.90;;;;;;5096185;28;20227;-82
2023/02/07 04:06:21;;;;;;;31.30;17.50;;;-3.20;99.90;;;;;;5096340;28;20533;-82
2023/02/07 04:08:47;;;;;;;33.13;18.30;;;-3.20;99.90;;;;;;5096060;28;20467;-82
2023/02/07 04:11:12;;;;;;;33.13;17.43;;;-3.10;99.90;;;;;;5114472;28;20429;-82
2023/02/07 04:13:38;;;;;;;35.93;19.23;;;-3.20;99.90;;;;;;5092731;28;20780;-83
2023/02/07 04:16:05;;;;;;;29.60;17.10;;;-3.10;99.90;;;;;;5094231;28;20203;-82
2023/02/07 04:18:32;;;;;;;36.03;17.88;;;-3.20;99.90;;;;;;5093808;28;20571;-82
2023/02/07 04:21:03;;;;;;;33.72;18.35;;;-3.10;99.90;;;;;;5093565;28;20295;-82
2023/02/07 04:23:29;;;;;;;31.80;18.35;;;-3.20;99.90;;;;;;5092431;28;20581;-82
2023/02/07 04:25:55;;;;;;;39.10;17.67;;;-3.20;99.90;;;;;;5092612;28;20267;-82
2023/02/07 04:28:21;;;;;;;30.90;17.30;;;-3.20;99.90;;;;;;5092519;28;20656;-82
2023/02/07 04:30:46;;;;;;;34.73;17.23;;;-3.20;99.90;;;;;;5092566;28;20215;-81
2023/02/07 04:33:12;;;;;;;32.83;18.80;;;-3.20;99.90;;;;;;5093698;28;20438;-82
2023/02/07 04:35:38;;;;;;;34.40;18.07;;;-3.20;99.90;;;;;;5092281;28;20616;-82
2023/02/07 04:38:04;;;;;;;32.93;18.20;;;-3.20;99.90;;;;;;5093611;28;20780;-82
2023/02/07 04:40:29;;;;;;;34.93;19.10;;;-3.30;99.90;;;;;;5092159;28;20200;-82
2023/02/07 04:42:55;;;;;;;31.83;17.90;;;-3.30;99.90;;;;;;5093571;28;20422;-82
2023/02/07 04:45:21;;;;;;;35.70;17.90;;;-3.30;99.90;;;;;;5093804;28;20172;-82
2023/02/07 04:47:47;;;;;;;39.43;21.40;;;-3.40;99.90;;;;;;5092310;28;20201;-82
2023/02/07 04:50:12;;;;;;;31.23;17.47;;;-3.40;99.90;;;;;;5092302;28;20185;-82
2023/02/07 04:52:40;;;;;;;31.40;17.13;;;-3.40;99.90;;;;;;5092167;28;20947;-82
2023/02/07 04:55:06;;;;;;;38.70;21.00;;;-3.30;99.90;;;;;;5092298;28;20173;-82
2023/02/07 04:57:33;;;;;;;34.00;17.70;;;-3.30;99.90;;;;;;5093363;28;20204;-82
2023/02/07 04:59:59;;;;;;;34.85;19.25;;;-3.30;99.90;;;;;;5090854;28;20553;-82
2023/02/07 05:02:25;;;;;;;33.67;18.83;;;-3.20;99.90;;;;;;5091464;28;20227;-82
2023/02/07 05:04:50;;;;;;;34.67;18.20;;;-3.20;99.90;;;;;;5091398;28;20176;-82
2023/02/07 05:07:16;;;;;;;35.10;19.13;;;-3.20;99.90;;;;;;5092039;28;20936;-82
2023/02/07 05:09:42;;;;;;;37.63;19.90;;;-3.30;99.90;;;;;;5092518;28;20180;-81
2023/02/07 05:12:07;;;;;;;41.67;19.27;;;-3.30;99.90;;;;;;5095897;28;20484;-81
2023/02/07 05:14:33;;;;;;;34.17;17.00;;;-3.20;99.90;;;;;;5094908;28;20184;-82
2023/02/07 05:16:59;;;;;;;31.90;17.47;;;-3.20;99.90;;;;;;5095340;28;20191;-82
2023/02/07 05:19:24;;;;;;;36.60;18.50;;;-3.20;99.90;;;;;;5095199;28;20408;-82
2023/02/07 05:21:50;;;;;;;35.10;18.77;;;-3.10;99.90;;;;;;5095410;28;20684;-82
2023/02/07 05:24:16;;;;;;;39.03;19.40;;;-3.10;99.90;;;;;;5094628;28;20702;-83
2023/02/07 05:26:42;;;;;;;37.73;19.53;;;-3.20;99.90;;;;;;5113797;28;20528;-83
2023/02/07 05:29:08;;;;;;;34.17;18.70;;;-3.10;99.90;;;;;;5092811;28;20423;-82
2023/02/07 05:34:18;;;;;;;39.20;20.02;;;-3.10;99.90;;;;;;5116879;28;20231;-83
2023/02/07 05:36:43;;;;;;;47.25;20.90;;;-3.10;99.90;;;;;;5098591;28;20175;-84
2023/02/07 05:39:09;;;;;;;48.00;25.53;;;-3.10;99.90;;;;;;5116961;28;20180;-84
2023/02/07 05:41:35;;;;;;;45.77;22.87;;;-3.10;99.90;;;;;;5098920;28;20221;-83
2023/02/07 05:44:00;;;;;;;36.33;20.50;;;-3.10;99.90;;;;;;5116977;28;20196;-84
2023/02/07 05:46:26;;;;;;;38.00;22.00;;;-3.10;99.90;;;;;;5098820;28;20172;-83
2023/02/07 05:48:52;;;;;;;39.17;19.30;;;-3.10;99.90;;;;;;5098543;28;20410;-84
2023/02/07 05:51:18;;;;;;;38.50;20.00;;;-3.10;99.90;;;;;;5098574;28;20426;-83
2023/02/07 05:53:44;;;;;;;35.83;19.87;;;-3.10;99.90;;;;;;5098548;28;20656;-83
2023/02/07 05:56:09;;;;;;;39.47;20.93;;;-3.10;99.90;;;;;;5097546;28;20188;-84
2023/02/07 05:58:35;;;;;;;35.40;19.63;;;-3.10;99.90;;;;;;5116400;28;20226;-83
2023/02/07 06:01:01;;;;;;;37.03;21.07;;;-3.20;99.90;;;;;;5115117;28;20210;-82
2023/02/07 06:03:26;;;;;;;39.27;20.80;;;-3.10;99.90;;;;;;5096805;28;20207;-82
2023/02/07 06:05:52;;;;;;;46.47;19.83;;;-3.10;99.90;;;;;;5095401;28;20641;-83
2023/02/07 06:08:18;;;;;;;37.73;19.70;;;-3.10;99.90;;;;;;5109663;28;20287;-84
2023/02/07 06:10:43;;;;;;;38.57;20.27;;;-3.00;99.90;;;;;;5083935;28;20445;-83
2023/02/07 06:13:09;;;;;;;35.30;18.57;;;-3.00;99.90;;;;;;5100783;28;20719;-84
2023/02/07 06:15:35;;;;;;;43.88;19.95;;;-2.90;99.90;;;;;;5084600;28;20187;-84
2023/02/07 06:18:01;;;;;;;42.00;22.03;;;-2.90;99.90;;;;;;5106707;27;20203;-84
2023/02/07 06:20:27;;;;;;;39.10;21.27;;;-2.90;99.90;;;;;;5084641;28;20175;-83
2023/02/07 06:22:52;;;;;;;39.70;22.03;;;-2.80;99.90;;;;;;5100896;28;20282;-84
2023/02/07 06:25:18;;;;;;;42.97;22.40;;;-2.80;99.90;;;;;;5088027;28;20421;-84
2023/02/07 06:27:44;;;;;;;42.63;22.80;;;-2.70;99.90;;;;;;5108144;28;20196;-83
2023/02/07 06:30:11;;;;;;;37.93;22.13;;;-2.70;99.90;;;;;;5108986;28;21395;-83
2023/02/07 06:32:37;;;;;;;48.40;23.75;;;-2.70;99.90;;;;;;5088538;28;20432;-84
2023/02/07 06:35:04;;;;;;;40.42;21.45;;;-2.60;99.90;;;;;;5103370;28;20208;-83
2023/02/07 06:37:30;;;;;;;41.30;22.15;;;-2.60;99.90;;;;;;5083367;28;20939;-84
2023/02/07 06:39:56;;;;;;;35.30;19.13;;;-2.60;99.90;;;;;;5102250;28;20164;-84
2023/02/07 06:42:21;;;;;;;44.90;19.80;;;-2.60;99.90;;;;;;5085175;28;20237;-84
2023/02/07 06:44:47;;;;;;;40.80;21.37;;;-2.50;99.90;;;;;;5104040;28;20195;-83
2023/02/07 06:47:13;;;;;;;40.50;20.07;;;-2.40;99.90;;;;;;5085661;28;20435;-83
2023/02/07 06:49:38;;;;;;;33.97;18.40;;;-2.30;99.90;;;;;;5086833;28;20194;-84
2023/02/07 06:52:04;;;;;;;36.03;21.20;;;-2.30;99.90;;;;;;5104880;28;20230;-83
2023/02/07 06:54:30;;;;;;;43.30;19.10;;;-2.20;99.90;;;;;;5105019;28;20172;-82
2023/02/07 06:56:55;;;;;;;42.53;22.30;;;-2.10;99.90;;;;;;5082876;28;20495;-83
2023/02/07 06:59:21;;;;;;;31.67;19.27;;;-2.20;99.90;;;;;;5081892;28;20168;-83
2023/02/07 07:01:47;;;;;;;39.63;21.53;;;-2.20;99.90;;;;;;5086385;28;20200;-84
2023/02/07 07:04:13;;;;;;;39.50;21.53;;;-2.20;99.90;;;;;;5097914;28;20219;-82
2023/02/07 07:06:38;;;;;;;39.77;20.97;;;-2.00;99.90;;;;;;5109152;28;20191;-83
2023/02/07 07:09:04;;;;;;;36.00;20.73;;;-2.00;99.90;;;;;;5081126;28;20209;-83
2023/02/07 07:11:30;;;;;;;33.97;20.67;;;-1.90;99.90;;;;;;5086257;28;20407;-83
2023/02/07 07:13:56;;;;;;;40.85;20.55;;;-1.90;99.90;;;;;;5110681;28;20618;-82
2023/02/07 07:16:22;;;;;;;40.37;20.67;;;-1.80;99.90;;;;;;5092412;28;20179;-82
2023/02/07 07:18:47;;;;;;;32.27;18.40;;;-1.90;99.90;;;;;;5093659;28;20206;-82
2023/02/07 07:21:13;;;;;;;35.60;18.30;;;-1.80;99.90;;;;;;5110530;28;20453;-82
2023/02/07 07:23:38;;;;;;;34.90;19.63;;;-1.80;99.90;;;;;;5092728;28;20212;-83
2023/02/07 07:26:05;;;;;;;35.40;20.47;;;-1.80;99.90;;;;;;5110211;27;20176;-83
2023/02/07 07:28:30;;;;;;;34.78;18.92;;;-1.80;99.90;;;;;;5089150;28;20219;-82
2023/02/07 07:31:06;;;;;;;37.13;19.40;;;-1.80;99.90;;;;;;5093953;28;20179;-83
2023/02/07 07:33:33;;;;;;;34.17;19.23;;;-1.70;99.90;;;;;;5097480;28;20208;-83
2023/02/07 07:36:00;;;;;;;31.80;18.83;;;-1.70;99.90;;;;;;5110214;27;20176;-83
2023/02/07 07:38:26;;;;;;;36.72;19.38;;;-1.50;99.90;;;;;;5095895;28;20228;-84
2023/02/07 07:40:52;;;;;;;32.50;19.10;;;-1.40;99.90;;;;;;5106796;28;20214;-83
2023/02/07 07:43:18;;;;;;;43.20;19.40;;;-1.30;99.90;;;;;;5088995;28;20802;-84
2023/02/07 07:45:43;;;;;;;33.20;19.27;;;-1.10;99.90;;;;;;5099972;28;20655;-82
2023/02/07 07:48:09;;;;;;;29.40;17.00;;;-0.90;99.90;;;;;;5089962;28;20257;-83
2023/02/07 07:50:35;;;;;;;36.03;18.53;;;-0.40;99.90;;;;;;5108593;28;20367;-82
2023/02/07 07:53:00;;;;;;;37.03;19.80;;;0.30;99.90;;;;;;5112048;28;20586;-82
2023/02/07 07:55:26;;;;;;;39.83;20.37;;;0.90;99.90;;;;;;5109677;28;20196;-83
2023/02/07 07:57:52;;;;;;;37.80;20.00;;;1.50;99.90;;;;;;5091935;28;20207;-84
2023/02/07 08:00:18;;;;;;;29.30;18.70;;;2.10;99.90;;;;;;5094449;28;20205;-84
2023/02/07 08:02:44;;;;;;;30.92;18.77;;;2.50;99.90;;;;;;5093675;28;20523;-84
2023/02/07 08:05:10;;;;;;;32.33;17.73;;;3.10;99.90;;;;;;5109620;27;20188;-84
2023/02/07 08:07:36;;;;;;;35.50;19.87;;;;;;;;;;5091627;28;20612;-84
2023/02/07 08:10:02;;;;;;;32.40;17.88;;;;;;;;;;5091942;27;20272;-86
2023/02/07 08:12:28;;;;;;;29.70;18.00;;;;;;;;;;5087721;28;20239;-84
2023/02/07 08:14:54;;;;;;;28.45;18.17;;;;;;;;;;5081860;28;20184;-85
2023/02/07 08:17:20;;;;;;;26.27;18.10;;;;;;;;;;5103437;28;20586;-85
2023/02/07 08:19:46;;;;;;;27.95;18.23;;;;;;;;;;5102785;28;20182;-84
2023/02/07 08:22:13;;;;;;;26.03;16.50;;;3.90;99.90;;;;;;5104315;28;20228;-85
2023/02/07 08:24:40;;;;;;;28.50;18.08;;;9.90;91.90;;;;;;5087070;28;20423;-84
2023/02/07 08:27:06;;;;;;;26.48;17.45;;;10.40;90.50;;;;;;5102628;28;20241;-84
2023/02/07 08:29:32;;;;;;;26.95;17.90;;;11.00;87.80;;;;;;5108211;28;20182;-83
2023/02/07 08:31:58;;;;;;;31.63;17.73;;;11.50;84.90;;;;;;5083714;28;20527;-85
2023/02/07 08:34:25;;;;;;;37.77;22.13;;;11.90;82.50;;;;;;5085514;28;20727;-84
2023/02/07 08:36:52;;;;;;;30.00;18.10;;;12.30;80.60;;;;;;5099209;28;20270;-84
2023/02/07 08:39:17;;;;;;;27.42;20.48;;;12.50;78.10;;;;;;5080296;28;20746;-83
2023/02/07 08:41:43;;;;;;;86.90;49.57;;;12.30;77.80;;;;;;5105064;28;20251;-86
2023/02/07 08:44:09;;;;;;;36.60;25.77;;;12.30;78.20;;;;;;5089791;28;20258;-84
2023/02/07 08:46:34;;;;;;;30.00;21.40;;;12.40;77.20;;;;;;5082661;28;20436;-84
2023/02/07 08:49:00;;;;;;;27.60;18.73;;;12.60;76.00;;;;;;5083495;28;20195;-85
2023/02/07 08:51:26;;;;;;;26.83;20.07;;;12.60;76.10;;;;;;5097100;28;20179;-85
2023/02/07 08:53:52;;;;;;;29.67;18.53;;;12.30;75.00;;;;;;5100356;28;20204;-84
2023/02/07 08:56:18;;;;;;;23.10;16.75;;;11.90;74.40;;;;;;5082599;28;20614;-84
2023/02/07 08:58:44;;;;;;;21.67;16.10;;;11.20;75.50;;;;;;5099147;28;20204;-84
2023/02/07 09:01:10;;;;;;;24.90;16.40;;;10.60;76.10;;;;;;5082571;28;20207;-80
2023/02/07 09:03:39;;;;;;;27.73;15.73;;;10.30;76.50;;;;;;5100487;28;20223;-84
2023/02/07 09:06:05;;;;;;;27.35;17.15;;;10.00;77.00;;;;;;5076757;28;20184;-87
2023/02/07 09:08:31;;;;;;;20.35;13.30;;;9.80;77.50;;;;;;5105717;27;20203;-89
2023/02/07 09:10:56;;;;;;;22.10;13.10;;;9.50;78.20;;;;;;5091412;28;20625;-88
2023/02/07 09:13:22;;;;;;;21.90;14.77;;;9.50;77.80;;;;;;5078508;28;20308;-89
2023/02/07 09:15:58;;;;;;;21.50;13.83;;;9.70;77.30;;;;;;5085870;28;20646;-83
2023/02/07 09:18:24;;;;;;;23.75;15.63;;;9.90;77.20;;;;;;5082949;28;20511;-83
2023/02/07 09:20:51;;;;;;;28.75;16.50;;;10.00;76.80;;;;;;5083291;28;20209;-87
2023/02/07 09:23:16;;;;;;;27.10;14.73;;;10.00;76.50;;;;;;5078649;28;20201;-87
2023/02/07 09:25:43;;;;;;;28.13;17.23;;;9.70;76.60;;;;;;5079806;28;20185;-85
2023/02/07 09:28:09;;;;;;;21.20;13.57;;;9.40;76.80;;;;;;5088819;28;20626;-84
2023/02/07 09:30:35;;;;;;;17.77;13.30;;;9.10;76.70;;;;;;5090017;28;20237;-87
2023/02/07 09:33:01;;;;;;;19.77;13.90;;;8.90;76.90;;;;;;5086976;28;20325;-87
2023/02/07 09:35:26;;;;;;;18.60;11.60;;;8.90;77.80;;;;;;5080559;28;20271;-85
2023/02/07 09:37:53;;;;;;;22.37;12.37;;;9.10;77.30;;;;;;5087582;28;20474;-84
2023/02/07 09:40:19;;;;;;;17.42;12.20;;;9.10;76.20;;;;;;5077451;28;20664;-84
2023/02/07 09:43:01;;;;;;;21.00;14.48;;;9.10;75.90;;;;;;5090292;28;20665;-87
2023/02/07 09:45:30;;;;;;;18.85;13.30;;;9.10;75.10;;;;;;5072345;28;20187;-84
2023/02/07 09:48:05;;;;;;;17.50;10.77;;;8.90;75.50;;;;;;5092400;28;20524;-84
2023/02/07 09:50:35;;;;;;;15.23;11.07;;;9.00;75.80;;;;;;5077015;28;20577;-83
2023/02/07 09:53:07;;;;;;;20.40;13.85;;;9.00;74.60;;;;;;5074131;28;20236;-86
2023/02/07 09:55:45;;;;;;;18.33;11.95;;;8.70;75.60;;;;;;5078553;28;20733;-83
2023/02/07 09:58:19;;;;;;;17.60;11.75;;;8.30;77.20;;;;;;5088593;28;20204;-84
2023/02/07 10:00:58;;;;;;;16.38;11.63;;;8.10;77.10;;;;;;5087282;28;20252;-82
2023/02/07 10:03:25;;;;;;;22.35;14.50;;;8.00;77.10;;;;;;5080550;28;20224;-85
2023/02/07 10:06:01;;;;;;;24.10;14.90;;;8.30;77.00;;;;;;5077838;28;20215;-84
2023/02/07 10:08:27;;;;;;;19.40;12.18;;;8.50;77.20;;;;;;5080935;28;20216;-85
2023/02/07 10:11:23;;;;;;;15.93;10.63;;;9.00;77.70;;;;;;5086300;28;20208;-83
2023/02/07 10:14:13;;;;;;;18.02;12.60;;;9.30;76.10;;;;;;5102813;28;20242;-86
2023/02/07 10:16:57;;;;;;;21.83;12.70;;;9.40;74.80;;;;;;5109961;28;20187;-83
2023/02/07 10:19:57;;;;;;;19.73;13.43;;;9.10;74.60;;;;;;5087550;28;20648;-82
2023/02/07 10:22:47;;;;;;;20.48;13.45;;;8.40;77.30;;;;;;5089757;28;20260;-85
2023/02/07 10:25:27;;;;;;;22.05;12.77;;;8.10;77.40;;;;;;5086553;28;20237;-83
2023/02/07 10:28:14;;;;;;;21.83;12.85;;;7.90;77.00;;;;;;5107153;28;20195;-85
2023/02/07 10:30:48;;;;;;;20.85;12.55;;;7.50;77.40;;;;;;5094050;28;20186;-85
2023/02/07 10:33:29;;;;;;;25.15;15.80;;;7.30;78.10;;;;;;5091535;28;20202;-82
2023/02/07 10:35:55;;;;;;;20.42;13.50;;;7.10;77.70;;;;;;5093301;28;20180;-82
2023/02/07 10:38:34;;;;;;;19.55;11.80;;;6.90;78.50;;;;;;5101250;27;20204;-85
2023/02/07 10:41:05;;;;;;;18.80;12.38;;;6.60;79.60;;;;;;5109107;28;20219;-81
2023/02/07 10:43:34;;;;;;;19.80;12.75;;;6.40;79.30;;;;;;5085399;28;20684;-82
2023/02/07 10:46:04;;;;;;;19.65;13.45;;;6.10;79.10;;;;;;5100805;27;20256;-82
2023/02/07 10:48:31;;;;;;;22.38;13.35;;;5.70;80.50;;;;;;5106555;28;20696;-85
2023/02/07 10:51:18;;;;;;;23.45;13.75;;;5.70;81.40;;;;;;5084787;28;20271;-83
2023/02/07 10:53:49;;;;;;;23.20;13.10;;;5.70;80.50;;;;;;5069881;28;20216;-85
2023/02/07 10:56:23;;;;;;;18.20;11.13;;;5.60;80.50;;;;;;5102189;27;20626;-84
2023/02/07 10:58:49;;;;;;;20.60;13.57;;;5.60;79.90;;;;;;5103075;28;20669;-81
2023/02/07 11:01:21;;;;;;;19.08;11.93;;;5.40;80.90;;;;;;5103678;28;20256;-81
2023/02/07 11:03:47;;;;;;;16.77;10.23;;;5.30;80.50;;;;;;5090428;28;20412;-84
2023/02/07 11:06:26;;;;;;;18.75;10.68;;;5.10;80.30;;;;;;5091211;28;20184;-81
2023/02/07 11:09:11;;;;;;;20.60;12.05;;;5.10;80.10;;;;;;5105352;28;20208;-81
2023/02/07 11:11:42;;;;;;;21.05;11.73;;;5.00;80.20;;;;;;5075498;28;20184;-82
2023/02/07 11:14:16;;;;;;;17.35;9.82;;;4.90;80.90;;;;;;5081426;28;20355;-82
2023/02/07 11:16:43;;;;;;;16.73;11.45;;;4.70;81.20;;;;;;5068931;28;20234;-84
2023/02/07 11:19:17;;;;;;;18.48;11.55;;;4.80;82.10;;;;;;5098295;28;20661;-84
2023/02/07 11:21:44;;;;;;;19.95;11.55;;;4.80;81.70;;;;;;5100752;28;20696;-82
2023/02/07 11:24:34;;;;;;;22.15;13.93;;;4.70;82.50;;;;;;5107840;28;20184;-82
2023/02/07 11:27:14;;;;;;;268.20;87.13;;;4.70;81.80;;;;;;5088514;28;20180;-84
2023/02/07 11:29:48;;;;;;;67.40;29.83;;;4.70;83.60;;;;;;5099322;28;20187;-82
2023/02/07 11:32:16;;;;;;;28.73;15.40;;;4.70;81.70;;;;;;5107429;27;20195;-82
2023/02/07 11:34:47;;;;;;;34.00;16.52;;;4.70;81.90;;;;;;5090193;27;20184;-82
2023/02/07 11:37:15;;;;;;;48.72;30.33;;;4.60;81.70;;;;;;5105432;28;20207;-82
2023/02/07 11:39:42;;;;;;;15.23;10.75;;;4.40;82.20;;;;;;5103545;28;20187;-85
2023/02/07 11:42:12;;;;;;;22.00;12.52;;;4.40;82.70;;;;;;5105482;28;20216;-85
2023/02/07 11:44:41;;;;;;;18.88;10.60;;;4.40;82.70;;;;;;5103777;28;20208;-85
2023/02/07 11:47:19;;;;;;;23.50;14.20;;;4.30;82.30;;;;;;5091767;27;20290;-83
2023/02/07 11:49:53;;;;;;;19.88;9.27;;;4.20;83.10;;;;;;5108232;28;20221;-82
2023/02/07 11:52:20;;;;;;;12.45;8.60;;;4.20;83.00;;;;;;5089798;27;20206;-82
2023/02/07 11:54:51;;;;;;;22.02;11.52;;;4.20;83.60;;;;;;5109975;28;20191;-82
2023/02/07 11:57:18;;;;;;;17.65;11.52;;;4.10;83.20;;;;;;5081195;27;20200;-83
2023/02/07 12:00:17;;;;;;;16.50;10.48;;;4.10;84.70;;;;;;5109329;27;20183;-83
2023/02/07 12:02:59;;;;;;;21.88;11.30;;;4.10;84.00;;;;;;5102246;28;20223;-82
2023/02/07 12:05:30;;;;;;;16.98;10.25;;;4.20;83.70;;;;;;5086957;28;20180;-81
2023/02/07 12:08:02;;;;;;;11.93;6.70;;;4.10;82.70;;;;;;5108787;28;20208;-83
2023/02/07 12:10:38;;;;;;;22.40;11.45;;;4.20;83.00;;;;;;5111002;28;20184;-84
2023/02/07 12:13:10;;;;;;;18.35;10.80;;;4.10;83.80;;;;;;5080885;28;20226;-82
2023/02/07 12:15:58;;;;;;;20.17;11.13;;;4.10;84.00;;;;;;5106082;28;20175;-82
2023/02/07 12:18:27;;;;;;;22.85;11.45;;;4.00;84.10;;;;;;5104112;28;20204;-83
2023/02/07 12:21:17;;;;;;;22.58;14.07;;;4.10;84.00;;;;;;5089651;28;20297;-84
2023/02/07 12:23:54;;;;;;;17.92;10.45;;;4.10;84.10;;;;;;5112730;28;20736;-83
2023/02/07 12:26:51;;;;;;;18.17;11.68;;;4.20;83.50;;;;;;5085621;28;20275;-82
2023/02/07 12:29:29;;;;;;;20.55;12.27;;;4.30;84.00;;;;;;5105639;28;20212;-85
2023/02/07 12:32:23;;;;;;;20.10;10.63;;;4.40;84.10;;;;;;5087731;28;20262;-82
2023/02/07 12:34:59;;;;;;;19.17;10.18;;;4.50;83.00;;;;;;5078449;28;20536;-83
2023/02/07 12:37:47;;;;;;;20.17;11.07;;;4.60;82.10;;;;;;5086976;28;20188;-84
2023/02/07 12:40:31;;;;;;;17.80;12.75;;;4.60;82.90;;;;;;5104314;28;20675;-83
2023/02/07 12:43:08;;;;;;;20.02;11.52;;;4.70;82.70;;;;;;5090235;28;20258;-83
2023/02/07 12:45:45;;;;;;;14.95;10.60;;;4.70;82.70;;;;;;5093717;28;20187;-83
2023/02/07 12:48:48;;;;;;;19.60;12.35;;;4.60;83.10;;;;;;5079894;28;20788;-84
2023/02/07 12:51:43;;;;;;;20.67;13.60;;;4.60;84.30;;;;;;5095960;28;20782;-81